Latest Weather Observations for Bairnsdale

IDV60801

Issued at 7:02 pm EDT Monday 8 February 2016 (issued every 30 minutes, with the page automatically refreshed every 10 minutes)

About weather observations | Map of weather stations | Latest weather observations for VIC | Other Formats
Station Details ID: 085279 Name: BAIRNSDALE AIRPORT Lat: -37.88 Lon: 147.57 Height: 49.4 m
Data from the previous 72 hours. | See also: Recent months at Bairnsdale
Date/Time
EDT
Temp
°C
App
Temp
°C
Dew
Point
Rel
Hum
%
Delta-T
°C
Wind Press
QNH
hPa
Press
MSL
hPa
Rain
since 9 am
mm
Dir
 
Spd
km/h
Gust
km/h
Spd
kts
Gust
kts
08/07:00pm 21.6 21.0 15.7 69 3.5 SSE 13 22 7 12 1020.3 1020.2 0.0
08/06:30pm 21.9 20.7 16.2 70 3.4 S 17 22 9 12 1020.2 1020.1 0.0
08/06:00pm 21.5 19.7 15.6 69 3.5 SSE 19 22 10 12 1020.1 1020.0 0.0
08/05:30pm 22.1 20.3 16.1 69 3.6 SSE 20 26 11 14 1020.2 1020.1 0.0
08/05:00pm 22.3 21.1 16.1 68 3.7 SSE 17 24 9 13 1020.2 1020.1 0.0
08/04:30pm 22.8 20.7 16.1 66 4.1 SSE 22 30 12 16 1020.3 1020.2 0.0
08/04:00pm 22.9 21.2 16.2 66 4.1 S 20 30 11 16 1020.2 1020.1 0.0
08/03:30pm 23.9 22.1 15.9 61 4.9 SSE 20 30 11 16 1020.2 1020.1 0.0
08/03:00pm 23.7 22.1 16.0 62 4.7 SSE 19 26 10 14 1020.2 1020.1 0.0
08/02:30pm 24.2 23.2 16.7 63 4.6 SSE 17 24 9 13 1020.2 1020.1 0.0
08/02:00pm 23.3 22.0 16.8 67 4.0 SE 19 28 10 15 1020.3 1020.2 0.0
08/01:30pm 22.8 20.9 16.6 68 3.8 SSE 22 26 12 14 1020.5 1020.4 0.0
08/01:00pm 23.1 22.7 16.2 65 4.2 SSW 13 19 7 10 1020.5 1020.4 0.0
08/12:30pm 23.1 22.9 16.6 67 4.0 SSE 13 20 7 11 1020.6 1020.5 0.0
08/12:00pm 22.5 21.3 16.1 67 3.9 WSW 17 22 9 12 1021.0 1020.9 0.0
08/11:30am 21.7 20.9 16.0 70 3.4 W 15 19 8 10 1021.2 1021.1 0.0
08/11:00am 20.9 20.9 16.3 75 2.8 SW 11 17 6 9 1021.2 1021.1 0.0
08/10:30am 20.4 20.5 16.4 78 2.4 WSW 11 17 6 9 1021.3 1021.2 0.0
08/10:00am 19.5 19.6 16.5 83 1.8 SSW 11 17 6 9 1021.2 1021.1 0.0
08/09:34am 19.5 20.0 16.5 83 1.8 S 9 11 5 6 1021.0 1020.9 0.0
08/09:30am 19.4 20.2 17.2 87 1.3 S 9 11 5 6 1021.0 1020.9 0.0
08/09:00am 18.3 18.8 17.5 95 0.5 WSW 11 15 6 8 1020.9 1020.8 0.0
08/08:30am 17.6 18.5 17.6 100 0.0 NW 9 11 5 6 1020.8 1020.7 0.0
08/08:07am 17.3 18.5 17.3 100 0.0 NW 7 9 4 5 1020.6 1020.5 0.0
08/08:00am 17.2 18.3 17.2 100 0.0 NW 7 9 4 5 1020.5 1020.4 0.0
08/07:57am 17.1 18.2 17.1 100 0.0 NNW 7 9 4 5 1020.5 1020.4 0.0
08/07:30am 16.6 17.5 16.6 100 0.0 NW 7 9 4 5 1020.3 1020.2 0.0
08/07:00am 16.5 17.0 16.5 100 0.0 WSW 9 13 5 7 1020.0 1019.9 0.0
08/06:30am 16.5 16.6 16.5 100 0.0 WSW 11 13 6 7 1019.7 1019.6 0.0
08/06:00am 16.9 16.4 16.9 100 0.0 WSW 15 20 8 11 1019.1 1019.0 0.0
08/05:49am 17.0 16.5 17.0 100 0.0 WSW 15 19 8 10 1019.0 1018.9 0.0
08/05:30am 17.0 16.5 17.0 100 0.0 WSW 15 20 8 11 1018.8 1018.7 0.0
08/05:00am 17.2 16.8 17.2 100 0.0 WSW 15 20 8 11 1018.5 1018.4 0.0
08/04:30am 17.2 17.6 17.2 100 0.0 W 11 17 6 9 1018.3 1018.2 0.0
08/04:00am 17.3 17.3 17.3 100 0.0 W 13 15 7 8 1018.2 1018.1 0.0
08/03:30am 16.5 15.8 16.5 100 0.0 WNW 15 17 8 9 1018.1 1018.0 0.0
08/03:00am 16.2 16.6 16.2 100 0.0 NW 9 13 5 7 1018.0 1017.9 0.0
08/02:30am 16.2 16.9 16.2 100 0.0 NW 7 9 4 5 1018.2 1018.1 0.0
08/02:00am 16.6 16.7 16.6 100 0.0 WNW 11 13 6 7 1018.4 1018.3 0.0
08/01:30am 16.1 16.4 16.1 100 0.0 NW 9 13 5 7 1018.2 1018.1 0.0
08/01:00am 16.1 16.4 16.1 100 0.0 WSW 9 9 5 5 1018.3 1018.2 0.0
08/12:30am 16.2 16.9 16.0 99 0.1 SW 7 9 4 5 1018.2 1018.1 0.0
08/12:00am 16.6 17.0 16.4 99 0.1 WSW 9 11 5 6 1018.2 1018.1 0.0
 
Date/Time
EDT
Temp
°C
App
Temp
°C
Dew
Point
Rel
Hum
%
Delta-T
°C
Wind Press
QNH
hPa
Press
MSL
hPa
Rain
since 9 am
mm
Dir
 
Spd
km/h
Gust
km/h
Spd
kts
Gust
kts
07/11:30pm 16.9 17.8 16.6 98 0.2 SW 7 9 4 5 1018.1 1018.0 0.0
07/11:00pm 17.2 17.9 16.1 93 0.7 SSW 7 7 4 4 1018.0 1017.9 0.0
07/10:30pm 18.0 19.1 16.7 92 0.8 SSW 6 7 3 4 1018.2 1018.1 0.0
07/10:00pm 19.5 20.8 17.1 86 1.5 SSE 6 7 3 4 1018.1 1018.0 0.0
07/09:30pm 20.6 21.7 17.0 80 2.2 SE 7 9 4 5 1017.9 1017.8 0.0
07/09:00pm 20.5 21.8 17.1 81 2.1 SSE 6 9 3 5 1017.5 1017.4 0.0
07/08:30pm 21.4 22.2 17.2 77 2.6 SSE 9 11 5 6 1017.2 1017.1 0.0
07/08:00pm 22.3 22.6 17.0 72 3.3 ESE 11 15 6 8 1016.8 1016.7 0.0
07/07:30pm 24.2 23.7 17.0 64 4.5 SE 15 19 8 10 1016.6 1016.5 0.0
07/07:00pm 25.5 24.5 16.6 58 5.5 SE 17 20 9 11 1016.2 1016.1 0.0
07/06:30pm 27.2 27.5 17.9 56 5.9 SE 13 17 7 9 1015.8 1015.7 0.0
07/06:00pm 27.6 27.2 17.2 53 6.5 SE 15 20 8 11 1015.7 1015.6 0.0
07/05:30pm 28.3 27.9 17.2 51 7.0 ESE 15 19 8 10 1015.6 1015.5 0.0
07/05:00pm 29.0 28.3 15.5 44 8.3 ESE 13 19 7 10 1015.6 1015.5 0.0
07/04:30pm 28.9 28.1 15.1 43 8.4 ESE 13 17 7 9 1015.6 1015.5 0.0
07/04:00pm 29.0 28.6 16.2 46 7.9 E 13 20 7 11 1015.6 1015.5 0.0
07/03:30pm 29.2 27.6 11.7 34 10.1 SE 11 17 6 9 1015.9 1015.8 0.0
07/03:00pm 28.8 28.8 17.3 49 7.3 ESE 13 20 7 11 1016.1 1016.0 0.0
07/02:30pm 28.8 29.2 17.3 49 7.3 SSE 11 17 6 9 1016.4 1016.3 0.0
07/02:00pm 28.5 27.8 13.2 39 9.0 S 9 15 5 8 1016.5 1016.4 0.0
07/01:30pm 27.8 27.6 15.8 48 7.4 SSE 11 17 6 9 1016.5 1016.4 0.0
07/01:00pm 27.8 27.3 17.0 51 6.8 S 15 22 8 12 1016.7 1016.6 0.0
07/12:30pm 27.5 27.8 17.9 55 6.1 S 13 19 7 10 1016.7 1016.6 0.0
07/12:00pm 26.5 27.6 18.1 60 5.3 SSW 9 17 5 9 1016.6 1016.5 0.0
07/11:30am 26.1 27.3 18.2 61 5.0 SSW 9 13 5 7 1016.7 1016.6 0.0
07/11:00am 25.3 26.9 18.2 64 4.5 SSE 7 11 4 6 1016.8 1016.7 0.0
07/10:30am 24.4 25.9 18.1 68 4.0 SSW 7 11 4 6 1016.9 1016.8 0.0
07/10:00am 23.3 24.4 17.1 68 3.8 SW 7 11 4 6 1016.8 1016.7 0.0
07/09:30am 21.9 24.0 17.3 75 2.8 S 2 6 1 3 1016.7 1016.6 0.0
07/09:00am 20.1 22.5 16.9 82 1.9 CALM 0 6 0 3 1016.6 1016.5 0.0
07/08:30am 18.1 19.8 18.1 100 0.0 WNW 6 7 3 4 1016.6 1016.5 0.0
07/08:00am 16.4 17.4 16.4 100 0.0 NW 6 7 3 4 1016.4 1016.3 0.0
07/07:30am 15.3 15.7 15.3 100 0.0 NW 7 9 4 5 1016.2 1016.1 0.0
07/07:00am 13.8 13.7 13.8 100 0.0 NW 7 9 4 5 1016.1 1016.0 0.0
07/06:30am 13.7 13.7 13.7 100 0.0 WNW 6 11 3 6 1015.9 1015.8 0.0
07/06:29am 13.7 13.7 13.7 100 0.0 WNW 6 9 3 5 1015.9 1015.8 0.0
07/06:00am 13.5 13.5 13.5 100 0.0 NW 6 7 3 4 1015.6 1015.5 0.0
07/05:53am 13.5 13.5 13.5 100 0.0 NNW 6 9 3 5 1015.5 1015.4 0.0
07/05:30am 13.5 12.9 13.5 100 0.0 NW 9 11 5 6 1015.4 1015.3 0.0
07/05:00am 13.4 12.8 13.4 100 0.0 NW 9 9 5 5 1015.3 1015.2 0.0
07/04:55am 13.7 13.2 13.7 100 0.0 NNW 9 9 5 5 1015.2 1015.0 0.0
07/04:32am 13.5 13.3 13.5 100 0.0 NNW 7 9 4 5 1015.2 1015.0 0.0
07/04:30am 13.9 13.8 13.9 100 0.0 NNW 7 9 4 5 1015.2 1015.0 0.0
07/04:00am 14.0 13.6 14.0 100 0.0 NNW 9 9 5 5 1015.3 1015.2 0.0
07/03:30am 14.9 15.4 14.9 100 0.0 NW 6 7 3 4 1015.3 1015.2 0.0
07/03:00am 15.1 15.6 15.1 100 0.0 WNW 6 7 3 4 1015.4 1015.3 0.0
07/02:43am 14.9 15.2 14.9 100 0.0 W 7 7 4 4 1015.5 1015.4 0.0
07/02:30am 14.5 14.6 14.5 100 0.0 W 7 7 4 4 1015.6 1015.5 0.0
07/02:06am 14.4 14.7 14.4 100 0.0 WNW 6 7 3 4 1015.8 1015.7 0.0
07/02:00am 14.5 14.8 14.5 100 0.0 WNW 6 6 3 3 1015.9 1015.8 0.0
07/01:59am 14.5 14.8 14.5 100 0.0 W 6 6 3 3 1015.9 1015.8 0.0
07/01:39am 15.1 15.6 15.1 100 0.0 W 6 7 3 4 1016.1 1016.0 0.0
07/01:30am 15.5 16.2 15.5 100 0.0 W 6 7 3 4 1016.1 1016.0 0.0
07/01:00am 15.1 15.4 15.1 100 0.0 W 7 9 4 5 1016.3 1016.2 0.0
07/12:30am 14.8 14.6 14.8 100 0.0 WNW 9 11 5 6 1016.4 1016.3 0.0
07/12:00am 14.6 14.8 14.6 100 0.0 W 7 9 4 5 1016.6 1016.5 0.0
 
Date/Time
EDT
Temp
°C
App
Temp
°C
Dew
Point
Rel
Hum
%
Delta-T
°C
Wind Press
QNH
hPa
Press
MSL
hPa
Rain
since 9 am
mm
Dir
 
Spd
km/h
Gust
km/h
Spd
kts
Gust
kts
06/11:30pm 15.2 15.8 15.2 100 0.0 WNW 6 7 3 4 1016.8 1016.7 0.0
06/11:00pm 15.6 16.2 15.3 98 0.2 S 6 7 3 4 1017.0 1016.9 0.0
06/10:30pm 17.8 18.2 15.2 85 1.5 SE 7 9 4 5 1017.0 1016.9 0.0
06/10:00pm 18.6 19.3 16.2 86 1.4 SE 7 11 4 6 1017.1 1017.0 0.0
06/09:30pm 18.8 19.2 16.2 85 1.6 ESE 9 13 5 7 1016.9 1016.8 0.0
06/09:00pm 19.3 19.7 16.3 83 1.8 ESE 9 15 5 8 1016.7 1016.6 0.0
06/08:30pm 19.6 18.9 16.3 81 2.0 E 15 24 8 13 1016.4 1016.3 0.0
06/08:00pm 20.7 19.5 16.1 75 2.8 E 17 22 9 12 1016.3 1016.2 0.0
06/07:30pm 21.6 20.0 15.9 70 3.4 ESE 19 24 10 13 1016.2 1016.1 0.0
06/07:00pm 22.8 21.5 15.9 65 4.2 ESE 17 24 9 13 1016.0 1015.9 0.0
06/06:30pm 23.3 21.7 15.9 63 4.5 ESE 19 24 10 13 1015.8 1015.7 0.0
06/06:00pm 23.8 21.7 16.1 62 4.7 E 22 28 12 15 1015.7 1015.6 0.0
06/05:30pm 23.8 20.9 16.1 62 4.7 E 26 32 14 17 1015.7 1015.6 0.0
06/05:00pm 24.8 22.8 16.5 60 5.1 E 22 30 12 16 1015.8 1015.7 0.0
06/04:30pm 24.3 21.7 15.8 59 5.2 ESE 24 33 13 18 1016.0 1015.9 0.0
06/04:00pm 24.5 21.8 15.7 58 5.3 ESE 24 35 13 19 1016.3 1016.2 0.0
06/03:30pm 24.7 22.3 16.4 60 5.1 ESE 24 33 13 18 1016.4 1016.3 0.0
06/03:00pm 24.4 21.6 16.4 61 4.9 ESE 26 35 14 19 1016.8 1016.7 0.0
06/02:30pm 24.0 20.3 16.0 61 4.9 ESE 30 35 16 19 1017.1 1017.0 0.0
06/02:00pm 24.6 21.8 16.3 60 5.1 ESE 26 33 14 18 1017.2 1017.1 0.0
06/01:30pm 23.9 20.7 15.4 59 5.1 ESE 26 33 14 18 1017.4 1017.3 0.0
06/01:00pm 24.7 23.0 16.2 59 5.2 ESE 20 28 11 15 1017.5 1017.4 0.0
06/12:30pm 23.7 21.8 15.7 61 4.8 ESE 20 30 11 16 1017.7 1017.6 0.0
06/12:00pm 24.6 24.2 16.1 59 5.2 E 13 22 7 12 1017.9 1017.8 0.0
06/11:30am 23.7 22.0 14.7 57 5.4 E 17 24 9 13 1018.2 1018.1 0.0
06/11:00am 23.2 21.1 14.7 58 5.0 E 19 26 10 14 1018.2 1018.1 0.0
06/10:30am 22.5 20.3 14.9 62 4.5 E 20 26 11 14 1018.4 1018.3 0.0
06/10:00am 20.8 19.5 14.7 68 3.6 ENE 15 19 8 10 1018.7 1018.6 0.0
06/09:30am 19.6 18.6 14.6 73 2.9 E 13 19 7 10 1019.1 1019.0 0.0
06/09:00am 18.0 18.1 14.5 80 2.0 NE 7 11 4 6 1019.2 1019.1 0.0
06/08:30am 16.4 15.0 13.5 83 1.6 NE 13 17 7 9 1019.3 1019.2 0.0
06/08:00am 15.5 15.1 14.0 91 0.8 NE 9 11 5 6 1019.2 1019.1 0.0
06/07:30am 14.5 14.2 14.5 100 0.0 E 9 11 5 6 1019.1 1019.0 0.0
06/07:00am 12.9 12.1 12.9 100 0.0 ENE 9 11 5 6 1018.8 1018.7 0.0
06/06:30am 12.3 11.3 12.3 100 0.0 NE 9 11 5 6 1018.7 1018.6 0.0
06/06:00am 12.3 11.7 12.3 100 0.0 NE 7 9 4 5 1018.5 1018.4 0.0
06/05:30am 12.9 12.5 12.9 100 0.0 N 7 9 4 5 1018.6 1018.5 0.0
06/05:00am 11.8 11.0 11.8 100 0.0 NNW 7 9 4 5 1018.6 1018.5 0.0
06/04:30am 12.9 13.7 12.7 99 0.1 CALM 0 0 0 0 1018.7 1018.6 0.0
06/04:00am 13.6 13.2 12.5 93 0.6 ENE 6 7 3 4 1018.7 1018.6 0.0
06/03:30am 14.2 13.8 12.9 92 0.7 NE 7 9 4 5 1018.9 1018.8 0.0
06/03:00am 14.7 14.0 13.2 91 0.8 ENE 9 11 5 6 1019.1 1019.0 0.0
06/02:30am 15.1 14.4 13.3 89 1.0 ENE 9 13 5 7 1019.5 1019.4 0.0
06/02:00am 15.4 14.8 13.4 88 1.1 NE 9 11 5 6 1019.8 1019.7 0.0
06/01:30am 16.0 15.1 13.7 86 1.3 ENE 11 19 6 10 1020.3 1020.2 0.0
06/01:00am 16.4 15.7 14.2 87 1.3 ENE 11 15 6 8 1020.5 1020.4 0.0
06/12:30am 15.9 15.5 14.1 89 1.0 ENE 9 11 5 6 1020.7 1020.6 0.0
06/12:00am 15.8 14.9 13.8 88 1.1 NE 11 13 6 7 1020.8 1020.7 0.0
 
Date/Time
EDT
Temp
°C
App
Temp
°C
Dew
Point
Rel
Hum
%
Delta-T
°C
Wind Press
QNH
hPa
Press
MSL
hPa
Rain
since 9 am
mm
Dir
 
Spd
km/h
Gust
km/h
Spd
kts
Gust
kts
05/11:30pm 16.7 16.0 14.2 85 1.4 ENE 11 15 6 8 1020.9 1020.8 0.0
05/11:00pm 17.6 16.1 14.3 81 1.9 ENE 15 19 8 10 1021.1 1021.0 0.0
05/10:30pm 18.5 15.0 14.4 77 2.4 E 26 35 14 19 1021.2 1021.1 0.0
05/10:00pm 18.6 15.0 14.3 76 2.5 E 26 33 14 18 1021.3 1021.2 0.0
05/09:30pm 18.4 16.2 14.5 78 2.3 E 19 26 10 14 1021.1 1021.0 0.0
05/09:00pm 18.5 15.7 14.2 76 2.5 E 22 32 12 17 1020.8 1020.7 0.0
05/08:30pm 18.7 15.4 14.0 74 2.7 E 24 37 13 20 1020.6 1020.5 0.0
05/08:00pm 19.3 14.8 13.7 70 3.2 E 30 41 16 22 1020.2 1020.1 0.0
05/07:30pm 20.0 15.2 13.0 64 4.0 E 30 37 16 20 1019.9 1019.8 0.0

Other Formats:

Comma delimited format used in spreadsheet applications
http://www.bom.gov.au/fwo/IDV60801/IDV60801.94912.axf

JavaScript Object Notation format (JSON) in row-major order
http://www.bom.gov.au/fwo/IDV60801/IDV60801.94912.json